createdAt,value
2019-03-03T00:00:28.098Z,74.64
2019-03-03T00:02:56.725Z,75.07
2019-03-03T00:05:25.363Z,75.48
2019-03-03T00:07:54.163Z,75.57
2019-03-03T00:10:22.658Z,75.63
2019-03-03T00:12:51.358Z,76.03
2019-03-03T00:15:20.037Z,76.29
2019-03-03T00:17:48.539Z,76.45
2019-03-03T00:20:17.176Z,76.31
2019-03-03T00:22:46.029Z,76.73
2019-03-03T00:25:15.666Z,77.56
2019-03-03T00:27:45.606Z,77.89
2019-03-03T00:30:16.348Z,78.03
2019-03-03T00:32:45.184Z,78.19
2019-03-03T00:35:14.246Z,77.99
2019-03-03T00:37:44.555Z,78.54
2019-03-03T00:40:27.739Z,78.26
2019-03-03T00:43:13.315Z,77.96
2019-03-03T00:46:01.549Z,78.15
2019-03-03T00:48:47.203Z,78.26
2019-03-03T00:51:35.819Z,78.71
2019-03-03T00:54:23.895Z,78.70
2019-03-03T00:56:54.099Z,79.28
2019-03-03T01:02:08.848Z,79.92
2019-03-03T01:04:44.803Z,79.75
2019-03-03T01:07:15.140Z,80.31
2019-03-03T01:09:45.415Z,80.57
2019-03-03T01:12:15.987Z,80.51
2019-03-03T01:14:49.260Z,80.40
2019-03-03T01:17:35.942Z,79.95
2019-03-03T01:20:08.603Z,80.03
2019-03-03T01:22:47.665Z,80.27
2019-03-03T01:25:16.274Z,79.98
2019-03-03T01:27:44.838Z,80.08
2019-03-03T01:30:13.972Z,80.05
2019-03-03T01:32:42.642Z,80.27
2019-03-03T01:35:11.630Z,80.17
2019-03-03T01:37:40.082Z,79.44
2019-03-03T01:40:10.748Z,79.25
2019-03-03T01:42:39.390Z,79.18
2019-03-03T01:45:12.983Z,78.96
2019-03-03T01:47:41.616Z,78.89
2019-03-03T01:50:13.913Z,78.60
2019-03-03T01:52:42.598Z,78.45
2019-03-03T01:55:12.703Z,78.35
2019-03-03T01:57:41.337Z,78.45
2019-03-03T02:00:24.287Z,78.01
2019-03-03T02:02:53.053Z,77.63
2019-03-03T02:05:21.693Z,77.46
2019-03-03T02:07:50.372Z,77.51
2019-03-03T02:10:24.012Z,77.69
2019-03-03T02:12:52.699Z,77.40
2019-03-03T02:15:22.036Z,77.34
2019-03-03T02:17:50.754Z,77.17
2019-03-03T02:20:19.313Z,77.39
2019-03-03T02:22:47.967Z,77.30
2019-03-03T02:25:16.591Z,77.04
2019-03-03T02:27:45.090Z,76.72
2019-03-03T02:30:16.863Z,76.72
2019-03-03T02:32:46.150Z,76.64
2019-03-03T02:35:15.181Z,76.57
2019-03-03T02:37:49.905Z,76.62
2019-03-03T02:40:20.097Z,76.77
2019-03-03T02:42:48.736Z,76.92
2019-03-03T02:45:19.550Z,77.13
2019-03-03T02:47:48.113Z,76.79
2019-03-03T02:50:17.046Z,76.38
2019-03-03T02:52:45.716Z,76.42
2019-03-03T02:55:15.846Z,76.76
2019-03-03T02:57:44.426Z,76.71
2019-03-03T03:00:18.703Z,76.14
2019-03-03T03:02:54.740Z,75.81
2019-03-03T03:05:37.942Z,75.58
2019-03-03T03:08:08.221Z,75.12
2019-03-03T03:10:54.641Z,74.66
2019-03-03T03:13:42.616Z,74.38
2019-03-03T03:16:16.068Z,74.16
2019-03-03T03:18:52.037Z,74.16
2019-03-03T03:21:22.203Z,73.76
2019-03-03T03:23:52.398Z,73.60
2019-03-03T03:26:28.717Z,73.37
2019-03-03T03:29:14.026Z,72.87
2019-03-03T03:31:50.115Z,72.79
2019-03-03T03:34:25.800Z,72.33
2019-03-03T03:37:02.046Z,72.09
2019-03-03T03:39:41.481Z,71.86
2019-03-03T03:42:28.013Z,71.11
2019-03-03T03:45:00.706Z,71.14
2019-03-03T03:47:47.599Z,71.32
2019-03-03T03:50:17.811Z,71.48
2019-03-03T03:53:00.345Z,71.33
2019-03-03T03:55:31.724Z,71.50
2019-03-03T03:58:04.517Z,71.55
2019-03-03T04:00:41.608Z,72.40
2019-03-03T04:03:11.881Z,72.86
2019-03-03T04:05:47.977Z,72.71
2019-03-03T04:08:18.159Z,73.38
2019-03-03T04:10:48.297Z,73.98
2019-03-03T04:13:35.217Z,74.22
2019-03-03T04:16:05.492Z,74.43
2019-03-03T04:18:54.289Z,74.34
2019-03-03T04:21:30.057Z,74.68
2019-03-03T04:24:00.361Z,74.38
2019-03-03T04:26:48.995Z,74.31
2019-03-03T04:29:19.175Z,74.42
2019-03-03T04:31:58.453Z,74.34
2019-03-03T04:34:34.279Z,74.39
2019-03-03T04:37:26.739Z,74.31
2019-03-03T04:40:02.812Z,74.65
2019-03-03T04:42:33.090Z,74.26
2019-03-03T04:45:09.280Z,74.02
2019-03-03T04:47:39.496Z,73.87
2019-03-03T04:50:10.483Z,73.95
2019-03-03T04:52:46.742Z,74.30
2019-03-03T04:55:16.880Z,74.45
2019-03-03T04:57:47.004Z,73.85
2019-03-03T05:00:23.134Z,73.99
2019-03-03T05:03:02.414Z,74.94
2019-03-03T05:05:47.916Z,75.76
2019-03-03T05:08:27.468Z,74.12
2019-03-03T05:10:57.756Z,74.83
2019-03-03T05:13:27.910Z,75.24
2019-03-03T05:16:04.308Z,75.56
2019-03-03T05:18:46.940Z,75.19
2019-03-03T05:21:15.483Z,75.78
2019-03-03T05:23:43.985Z,76.24
2019-03-03T05:26:12.616Z,76.54
2019-03-03T05:28:41.301Z,76.56
2019-03-03T05:31:09.899Z,76.29
2019-03-03T05:33:38.393Z,75.82
2019-03-03T05:36:09.735Z,76.30
2019-03-03T05:38:38.381Z,76.21
2019-03-03T05:41:06.880Z,76.11
2019-03-03T05:43:35.481Z,76.11
2019-03-03T05:46:04.107Z,76.29
2019-03-03T05:48:32.739Z,76.25
2019-03-03T05:51:01.284Z,76.50
2019-03-03T05:53:29.913Z,76.00
2019-03-03T05:55:58.411Z,76.14
2019-03-03T05:58:26.948Z,76.43
2019-03-03T06:00:55.585Z,76.90
2019-03-03T06:03:24.218Z,76.46
2019-03-03T06:05:52.750Z,76.27
2019-03-03T06:08:21.249Z,76.25
2019-03-03T06:10:49.883Z,76.45
2019-03-03T06:13:18.560Z,76.37
2019-03-03T06:15:47.054Z,76.46
2019-03-03T06:18:15.617Z,76.32
2019-03-03T06:20:44.284Z,75.93
2019-03-03T06:23:12.915Z,75.84
2019-03-03T06:25:41.485Z,76.43
2019-03-03T06:28:10.040Z,75.71
2019-03-03T06:30:38.692Z,75.87
2019-03-03T06:33:07.319Z,75.41
2019-03-03T06:35:36.022Z,75.25
2019-03-03T06:38:04.674Z,75.03
2019-03-03T06:40:33.305Z,74.51
2019-03-03T06:43:02.188Z,74.63
2019-03-03T06:45:30.682Z,75.27
2019-03-03T06:47:59.248Z,75.32
2019-03-03T06:50:28.140Z,75.35
2019-03-03T06:52:56.891Z,75.17
2019-03-03T06:55:25.381Z,74.87
2019-03-03T06:57:53.947Z,75.38
2019-03-03T07:00:22.587Z,75.24
2019-03-03T07:02:51.210Z,74.37
2019-03-03T07:05:19.749Z,74.26
2019-03-03T07:07:48.241Z,74.08
2019-03-03T07:10:16.875Z,73.27
2019-03-03T07:12:45.692Z,73.03
2019-03-03T07:15:16.427Z,73.12
2019-03-03T07:17:45.074Z,73.25
2019-03-03T07:20:16.775Z,72.35
2019-03-03T07:22:45.899Z,72.73
2019-03-03T07:25:15.037Z,73.49
2019-03-03T07:27:43.644Z,72.82
2019-03-03T07:30:14.849Z,72.17
2019-03-03T07:32:48.068Z,72.51
2019-03-03T07:35:16.699Z,71.87
2019-03-03T07:37:45.333Z,71.70
2019-03-03T07:40:14.038Z,71.68
2019-03-03T07:42:42.609Z,70.65
2019-03-03T07:45:15.523Z,72.47
2019-03-03T07:47:44.395Z,72.04
2019-03-03T07:50:13.024Z,71.70
2019-03-03T07:52:41.659Z,71.19
2019-03-03T07:55:11.263Z,71.63
2019-03-03T07:57:39.896Z,71.58
2019-03-03T08:00:13.863Z,71.94
2019-03-03T08:02:42.692Z,72.09
2019-03-03T08:05:12.124Z,72.51
2019-03-03T08:07:40.611Z,73.59
2019-03-03T08:10:16.282Z,73.50
2019-03-03T08:12:44.925Z,73.24
2019-03-03T08:15:19.887Z,73.11
2019-03-03T08:17:48.483Z,73.12
2019-03-03T08:20:19.856Z,71.63
2019-03-03T08:22:48.578Z,71.05
2019-03-03T08:25:17.298Z,70.51
2019-03-03T08:27:45.805Z,69.68
2019-03-03T08:30:18.419Z,69.54
2019-03-03T08:32:47.016Z,69.30
2019-03-03T08:35:20.281Z,67.35
2019-03-03T08:37:48.917Z,67.32
2019-03-03T08:40:17.717Z,66.79
2019-03-03T08:42:50.891Z,66.75
2019-03-03T08:45:37.587Z,67.31
2019-03-03T08:48:13.997Z,66.37
2019-03-03T08:51:00.396Z,65.03
2019-03-03T08:53:36.276Z,64.70
2019-03-03T08:56:09.244Z,64.10
2019-03-03T08:58:42.589Z,63.69
2019-03-03T09:01:12.740Z,62.13
2019-03-03T09:03:46.069Z,61.67
2019-03-03T09:06:16.377Z,62.51
2019-03-03T09:08:58.571Z,62.77
2019-03-03T09:11:28.818Z,61.74
2019-03-03T09:13:59.089Z,61.43
2019-03-03T09:16:29.260Z,60.73
2019-03-03T09:19:15.671Z,60.35
2019-03-03T09:21:51.684Z,60.45
2019-03-03T09:24:31.084Z,61.60
2019-03-03T09:27:19.136Z,60.18
2019-03-03T09:29:58.485Z,60.58
2019-03-03T09:32:28.760Z,59.96
2019-03-03T09:35:08.349Z,59.08
2019-03-03T09:37:41.215Z,58.12
2019-03-03T09:40:28.120Z,58.78
2019-03-03T09:43:16.929Z,57.63
2019-03-03T09:46:03.823Z,57.01
2019-03-03T09:48:50.144Z,56.03
2019-03-03T09:51:23.099Z,55.16
2019-03-03T09:54:09.552Z,53.37
2019-03-03T09:56:39.721Z,52.99
2019-03-03T09:59:16.229Z,53.13
2019-03-03T10:01:49.393Z,53.89
2019-03-03T10:04:19.594Z,52.92
2019-03-03T10:06:49.867Z,52.58
2019-03-03T10:09:20.712Z,52.53
2019-03-03T10:11:51.029Z,52.18
2019-03-03T10:14:37.651Z,51.67
2019-03-03T10:17:13.925Z,51.29
2019-03-03T10:20:02.687Z,49.59
2019-03-03T10:22:33.012Z,49.33
2019-03-03T10:25:03.214Z,48.69
2019-03-03T10:27:36.605Z,48.18
2019-03-03T10:30:25.826Z,48.42
2019-03-03T10:32:56.112Z,48.14
2019-03-03T10:35:26.316Z,48.79
2019-03-03T10:37:59.728Z,47.98
2019-03-03T10:40:38.928Z,47.76
2019-03-03T10:43:18.181Z,48.35
2019-03-03T10:45:54.280Z,48.29
2019-03-03T10:48:33.717Z,44.92
2019-03-03T10:51:20.029Z,45.69
2019-03-03T10:54:06.754Z,46.08
2019-03-03T10:56:37.038Z,45.77
2019-03-03T10:59:22.935Z,45.67
2019-03-03T11:02:05.285Z,46.69
2019-03-03T11:04:47.539Z,48.33
2019-03-03T11:07:20.763Z,50.66
2019-03-03T11:09:51.034Z,51.81
2019-03-03T11:12:24.588Z,51.72
2019-03-03T11:14:58.540Z,51.85
2019-03-03T11:17:47.537Z,51.62
2019-03-03T11:20:33.567Z,51.72
2019-03-03T11:23:21.999Z,50.80
2019-03-03T11:26:01.014Z,51.41
2019-03-03T11:28:40.128Z,51.73
2019-03-03T11:31:35.538Z,51.22
2019-03-03T11:34:05.917Z,51.21
2019-03-03T11:36:36.190Z,50.91
2019-03-03T11:39:15.091Z,49.87
2019-03-03T11:41:51.095Z,49.34
2019-03-03T11:44:38.186Z,49.21
2019-03-03T11:47:17.272Z,49.71
2019-03-03T11:49:50.399Z,48.70
2019-03-03T11:52:23.155Z,46.64
2019-03-03T11:55:00.871Z,46.94
2019-03-03T11:57:34.359Z,47.45
2019-03-03T12:00:17.508Z,46.52
2019-03-03T12:02:56.825Z,46.10
2019-03-03T12:05:27.132Z,43.51
2019-03-03T12:07:57.403Z,44.10
2019-03-03T12:10:27.608Z,45.66
2019-03-03T12:13:00.581Z,45.87
2019-03-03T12:15:33.569Z,44.27
2019-03-03T12:18:03.851Z,45.13
2019-03-03T12:20:37.153Z,46.41
2019-03-03T12:23:10.176Z,45.28
2019-03-03T12:25:40.444Z,44.74
2019-03-03T12:28:13.493Z,43.87
2019-03-03T12:30:43.627Z,44.11
2019-03-03T12:33:29.195Z,43.90
2019-03-03T12:36:02.487Z,44.31
2019-03-03T12:38:32.748Z,43.72
2019-03-03T12:41:03.230Z,40.78
2019-03-03T12:43:33.496Z,41.50
2019-03-03T12:46:12.660Z,42.42
2019-03-03T12:48:42.792Z,44.10
2019-03-03T12:51:29.238Z,43.25
2019-03-03T12:54:05.488Z,42.30
2019-03-03T12:56:44.219Z,42.46
2019-03-03T12:59:16.885Z,42.22
2019-03-03T13:01:49.985Z,43.08
2019-03-03T13:04:20.255Z,42.86
2019-03-03T13:07:06.506Z,42.80
2019-03-03T13:09:55.771Z,42.24
2019-03-03T13:12:26.233Z,41.12
2019-03-03T13:15:07.115Z,41.76
2019-03-03T13:17:37.291Z,42.17
2019-03-03T13:20:10.464Z,43.16
2019-03-03T13:22:58.779Z,43.33
2019-03-03T13:25:31.411Z,42.36
2019-03-03T13:28:10.969Z,42.53
2019-03-03T13:30:43.963Z,42.99
2019-03-03T13:33:19.765Z,42.66
2019-03-03T13:36:06.459Z,42.46
2019-03-03T13:38:39.708Z,41.84
2019-03-03T13:41:16.018Z,42.05
2019-03-03T13:43:44.706Z,42.38
2019-03-03T13:46:13.433Z,42.58
2019-03-03T13:48:42.058Z,42.53
2019-03-03T13:51:10.932Z,42.82
2019-03-03T13:53:39.503Z,42.46
2019-03-03T13:56:08.127Z,41.84
2019-03-03T13:58:37.030Z,41.58
2019-03-03T14:01:05.657Z,41.70
2019-03-03T14:03:34.288Z,41.16
2019-03-03T14:06:03.047Z,41.41
2019-03-03T14:08:31.667Z,41.74
2019-03-03T14:11:00.195Z,41.55
2019-03-03T14:13:28.863Z,42.15
2019-03-03T14:15:57.491Z,42.15
2019-03-03T14:18:26.055Z,41.64
2019-03-03T14:20:54.582Z,41.52
2019-03-03T14:23:23.221Z,41.83
2019-03-03T14:25:51.849Z,41.47
2019-03-03T14:28:20.446Z,41.33
2019-03-03T14:30:48.939Z,41.14
2019-03-03T14:33:17.567Z,41.27
2019-03-03T14:35:46.280Z,41.13
2019-03-03T14:38:14.804Z,41.04
2019-03-03T14:40:43.364Z,41.12
2019-03-03T14:43:13.751Z,41.11
2019-03-03T14:45:42.386Z,41.00
2019-03-03T14:48:11.006Z,40.65
2019-03-03T14:50:39.603Z,40.63
2019-03-03T14:53:08.230Z,40.57
2019-03-03T14:55:36.864Z,40.56
2019-03-03T14:58:05.549Z,40.97
2019-03-03T15:00:34.203Z,40.92
2019-03-03T15:03:04.825Z,41.01
2019-03-03T15:05:33.495Z,41.22
2019-03-03T15:08:01.998Z,41.79
2019-03-03T15:10:30.556Z,41.56
2019-03-03T15:12:59.387Z,41.96
2019-03-03T15:15:39.048Z,42.09
2019-03-03T15:18:07.656Z,42.22
2019-03-03T15:20:36.489Z,42.29
2019-03-03T15:23:05.411Z,42.46
2019-03-03T15:25:34.154Z,42.36
2019-03-03T15:28:02.778Z,42.65
2019-03-03T15:30:31.409Z,42.60
2019-03-03T15:33:00.011Z,42.89
2019-03-03T15:35:28.740Z,42.82
2019-03-03T15:37:57.410Z,43.46
2019-03-03T15:40:27.171Z,43.94
2019-03-03T15:42:55.804Z,44.47
2019-03-03T15:45:29.005Z,44.97
2019-03-03T15:47:57.894Z,45.47
2019-03-03T15:50:26.598Z,45.93
2019-03-03T15:52:55.257Z,46.04
2019-03-03T15:55:25.827Z,46.10
2019-03-03T15:57:54.465Z,46.13
2019-03-03T16:00:34.361Z,46.79
2019-03-03T16:03:12.031Z,47.17
2019-03-03T16:05:40.703Z,47.07
2019-03-03T16:08:09.351Z,47.48
2019-03-03T16:10:38.076Z,47.73
2019-03-03T16:13:06.893Z,48.37
2019-03-03T16:15:35.530Z,48.56
2019-03-03T16:18:04.290Z,48.83
2019-03-03T16:20:32.895Z,49.28
2019-03-03T16:23:01.532Z,49.26
2019-03-03T16:25:30.267Z,49.55
2019-03-03T16:27:58.805Z,49.83
2019-03-03T16:30:27.368Z,50.24
2019-03-03T16:32:56.011Z,50.52
2019-03-03T16:35:30.498Z,50.56
2019-03-03T16:37:58.997Z,51.00
2019-03-03T16:40:28.331Z,50.97
2019-03-03T16:42:56.997Z,51.12
2019-03-03T16:45:25.618Z,51.30
2019-03-03T16:47:54.259Z,51.18
2019-03-03T16:50:23.847Z,51.44
2019-03-03T16:52:52.530Z,51.74
2019-03-03T16:55:22.035Z,51.76
2019-03-03T16:57:50.652Z,52.19
2019-03-03T17:00:21.663Z,52.00
2019-03-03T17:02:50.518Z,52.19
2019-03-03T17:05:29.153Z,52.41
2019-03-03T17:07:57.926Z,52.63
2019-03-03T17:10:26.564Z,52.79
2019-03-03T17:12:55.411Z,53.02
2019-03-03T17:15:25.275Z,53.01
2019-03-03T17:17:53.864Z,52.86
2019-03-03T17:20:22.538Z,53.05
2019-03-03T17:22:51.233Z,52.85
2019-03-03T17:25:22.603Z,52.80
2019-03-03T17:27:51.243Z,53.15
2019-03-03T17:30:22.848Z,53.04
2019-03-03T17:32:51.453Z,53.11
2019-03-03T17:35:20.384Z,53.35
2019-03-03T17:37:49.017Z,53.71
2019-03-03T17:40:21.990Z,53.59
2019-03-03T17:42:50.626Z,53.41
2019-03-03T17:45:21.557Z,53.59
2019-03-03T17:47:50.290Z,53.84
2019-03-03T17:50:23.864Z,53.88
2019-03-03T17:52:52.505Z,53.88
2019-03-03T17:55:21.141Z,54.50
2019-03-03T17:57:49.770Z,54.53
2019-03-03T18:00:21.141Z,54.66
2019-03-03T18:02:49.704Z,55.03
2019-03-03T18:05:19.457Z,55.08
2019-03-03T18:07:48.510Z,55.40
2019-03-03T18:10:17.520Z,55.46
2019-03-03T18:12:46.271Z,55.63
2019-03-03T18:15:16.135Z,55.68
2019-03-03T18:17:44.701Z,56.11
2019-03-03T18:20:15.544Z,56.22
2019-03-03T18:22:44.440Z,56.43
2019-03-03T18:25:15.465Z,56.71
2019-03-03T18:27:44.108Z,56.94
2019-03-03T18:30:24.165Z,57.22
2019-03-03T18:32:52.794Z,57.58
2019-03-03T18:35:21.530Z,57.75
2019-03-03T18:37:50.224Z,57.96
2019-03-03T18:40:23.927Z,58.41
2019-03-03T18:42:52.862Z,58.52
2019-03-03T18:45:24.887Z,58.93
2019-03-03T18:47:53.518Z,58.89
2019-03-03T18:50:24.249Z,59.11
2019-03-03T18:52:53.125Z,59.23
2019-03-03T18:55:21.778Z,59.73
2019-03-03T18:57:50.402Z,59.94
2019-03-03T19:00:29.484Z,60.13
2019-03-03T19:02:58.650Z,60.50
2019-03-03T19:05:27.618Z,60.85
2019-03-03T19:07:56.280Z,61.09
2019-03-03T19:10:27.900Z,61.46
2019-03-03T19:12:56.526Z,61.58
2019-03-03T19:15:25.123Z,61.87
2019-03-03T19:17:53.957Z,61.92
2019-03-03T19:20:22.898Z,62.31
2019-03-03T19:22:51.668Z,62.73
2019-03-03T19:25:32.132Z,62.79
2019-03-03T19:28:00.729Z,63.53
2019-03-03T19:30:30.164Z,63.81
2019-03-03T19:33:01.969Z,63.96
2019-03-03T19:35:30.653Z,64.66
2019-03-03T19:37:59.290Z,64.79
2019-03-03T19:40:27.795Z,64.90
2019-03-03T19:42:56.544Z,64.93
2019-03-03T19:45:30.905Z,65.00
2019-03-03T19:47:59.539Z,64.95
2019-03-03T19:50:28.418Z,64.84
2019-03-03T19:52:57.056Z,64.98
2019-03-03T19:55:25.689Z,65.24
2019-03-03T19:57:54.395Z,65.37
2019-03-03T20:00:35.622Z,65.42
2019-03-03T20:03:02.088Z,65.40
2019-03-03T20:05:30.658Z,65.54
2019-03-03T20:07:59.386Z,65.54
2019-03-03T20:10:28.048Z,65.38
2019-03-03T20:12:56.614Z,64.94
2019-03-03T20:15:25.264Z,64.91
2019-03-03T20:17:53.933Z,64.97
2019-03-03T20:20:22.881Z,65.00
2019-03-03T20:22:51.449Z,64.86
2019-03-03T20:25:20.560Z,64.82
2019-03-03T20:27:49.193Z,64.69
2019-03-03T20:30:20.171Z,64.83
2019-03-03T20:32:48.766Z,65.14
2019-03-03T20:35:17.605Z,65.08
2019-03-03T20:37:47.346Z,65.49
2019-03-03T20:40:17.793Z,65.62
2019-03-03T20:42:46.354Z,65.61
2019-03-03T20:45:26.177Z,65.75
2019-03-03T20:47:54.734Z,65.78
2019-03-03T20:50:23.470Z,65.52
2019-03-03T20:52:52.336Z,65.52
2019-03-03T20:55:26.144Z,65.74
2019-03-03T20:57:54.828Z,65.67
2019-03-03T21:00:26.490Z,65.58
2019-03-03T21:02:55.275Z,65.33
2019-03-03T21:05:23.908Z,65.21
2019-03-03T21:07:52.687Z,65.05
2019-03-03T21:10:23.473Z,64.90
2019-03-03T21:12:52.109Z,64.97
2019-03-03T21:15:20.773Z,65.03
2019-03-03T21:17:49.341Z,64.77
2019-03-03T21:20:19.685Z,64.65
2019-03-03T21:22:48.564Z,64.47
2019-03-03T21:25:18.103Z,64.15
2019-03-03T21:27:46.732Z,64.35
2019-03-03T21:30:18.194Z,64.51
2019-03-03T21:32:46.831Z,64.92
2019-03-03T21:35:15.455Z,65.18
2019-03-03T21:37:44.325Z,65.81
2019-03-03T21:40:15.054Z,65.79
2019-03-03T21:42:43.792Z,65.84
2019-03-03T21:45:23.909Z,66.17
2019-03-03T21:47:52.603Z,66.17
2019-03-03T21:50:31.758Z,65.95
2019-03-03T21:53:00.317Z,66.08
2019-03-03T21:55:28.885Z,66.33
2019-03-03T21:57:57.548Z,66.98
2019-03-03T22:00:28.626Z,66.91
2019-03-03T22:02:57.282Z,67.48
2019-03-03T22:05:26.267Z,67.81
2019-03-03T22:07:54.896Z,68.09
2019-03-03T22:10:25.099Z,68.58
2019-03-03T22:12:54.271Z,68.71
2019-03-03T22:15:25.875Z,68.72
2019-03-03T22:17:54.506Z,68.73
2019-03-03T22:20:23.118Z,69.04
2019-03-03T22:22:51.754Z,69.51
2019-03-03T22:25:20.400Z,69.82
2019-03-03T22:27:48.924Z,69.52
2019-03-03T22:30:19.591Z,69.57
2019-03-03T22:32:48.227Z,69.71
2019-03-03T22:35:16.900Z,70.05
2019-03-03T22:37:45.468Z,70.09
2019-03-03T22:40:21.264Z,70.04
2019-03-03T22:42:49.891Z,69.82
2019-03-03T22:45:19.020Z,70.29
2019-03-03T22:50:23.361Z,70.41
2019-03-03T22:52:51.991Z,70.51
2019-03-03T22:55:21.625Z,70.70
2019-03-03T22:57:50.232Z,70.88
2019-03-03T23:00:29.299Z,70.91
2019-03-03T23:02:58.128Z,70.94
2019-03-03T23:05:32.652Z,71.14
2019-03-03T23:08:04.329Z,71.18
2019-03-03T23:10:44.617Z,70.80
2019-03-03T23:13:31.200Z,71.17
2019-03-03T23:16:23.832Z,71.45
2019-03-03T23:19:13.346Z,71.65
2019-03-03T23:22:00.132Z,71.89
2019-03-03T23:24:49.905Z,72.26
2019-03-03T23:27:18.402Z,72.16
2019-03-03T23:29:47.031Z,72.19
2019-03-03T23:32:16.455Z,72.44
2019-03-03T23:34:44.954Z,72.48
2019-03-03T23:37:13.446Z,72.13
2019-03-03T23:39:42.115Z,71.54
2019-03-03T23:42:10.749Z,71.69
2019-03-03T23:44:39.251Z,72.03
2019-03-03T23:47:07.918Z,72.62
2019-03-03T23:49:36.551Z,72.88
2019-03-03T23:52:05.111Z,72.74
2019-03-03T23:54:33.654Z,72.74
2019-03-03T23:57:02.153Z,72.74
2019-03-03T23:59:30.779Z,73.26
